Rolim de Moura, Brazil
Current Conditions -  °F | °C
As of 7:00 AM on Sunday 23 Nov 2014 (Local Time) from SLMG Reporting Station
Light Rain Light Rain  
Wind Chill: 77°   Ceiling: 1000
Heat Index: 78°   Visibility: 5mi
Dew Point: 75°   Wind: 9mph
Humidity: 94%   Direction: 120°ESE
Pressure: 29.83"   Gusts: NA
Location:  11.8°S, 61.8°W
Report Text: SLMG 231100Z 12008KT 8000 -RA BKN010 OVC070 25/24 Q1010
Loading
Personal Weather Stations






























Interactive Weather Map New forecast layout! Learn more

10-Day Weather Forecast

Advertisements
Track Severe Weather on mobile